Amalga, UT

11:56 PM MDT on October 22, 2014 (GMT -0600)
Northwest Smithfield | Change Station
CLOSE
Current Station
Personal Weather Station
Location: Smithfield, UT
Elevation: 4590 ft
Nearby Weather Stations

Elev 4590 ft 41.84 °N, 111.84 °W | Updated 13 minutes ago

Clear
Clear
38.3 °F
Feels Like 38 °F
N
1.1
Wind Variable Wind from ENE

Today
High -- | Low -- °F
--% Chance of Precip.
Yesterday
High -- | Low -- °F
Precip. -- in
7:47 AM 6:35 PM
Waning Crescent, 0% visible
Pressure 30.17 in
Visibility 10.0 miles
Clouds Clear
Windchill 38 °F
Dew Point 29 °F
Humidity 68%
Rainfall 0.00 in
Snow Depth 0 in , 0 in
UV 0 out of 12
Pollen 1.60 out of 12
PM2.5 Good
Flu Activity Sporadic
METAR KLGU 230551Z AUTO 00000KT 10SM CLR 03/M02 A3017 RMK AO2 SLP214 T00281017 10150 20017 58002 TSNO

More Conditions Fewer Conditions

Pressure 30.17 in
Visibility 10.0 miles
Clouds Clear
Windchill 38 °F
Dew Point 29 °F
Humidity 68%
Rainfall 0.00 in
Snow Depth 0 in , 0 in
UV 0 out of 12
Pollen 1.60 out of 12
PM2.5 Good
Flu Activity Sporadic
METAR KLGU 230551Z AUTO 00000KT 10SM CLR 03/M02 A3017 RMK AO2 SLP214 T00281017 10150 20017 58002 TSNO

More Conditions Fewer Conditions

10-Day Weather Forecast

Almanac

Astronomy

Oct. 22, 2014 Rise Set
Actual Time 7:47 AM MDT 6:35 PM MDT
Civil Twilight 7:19 AM MDT 7:03 PM MDT
Nautical Twilight 6:47 AM MDT 7:36 PM MDT
Astronomical Twilight 6:14 AM MDT 8:08 PM MDT
Moon 6:31 AM MDT (10/22) 6:04 PM MDT (10/22)
Length of Visible Light 11h 44m
Length of Day
10h 47m
Tomorrow will be 2m 38s shorter.
Waning Crescent, 0% of the Moon is Illuminated
Oct 23
Waning Crescent
Oct 23
New
Oct 30
First Quarter
Nov 6
Full
Nov 14
Last Quarter

Yesterday's Extremes

State Highs State Lows

Community

WunderPhotos

Upload Photos

1,764,188 photos uploaded!

Nearby

Air Quality

  Air Quality AQ Index Pollutant
Yesterday Good
PM2.5
Current Good
PM2.5

Snow Depth

Station Depth Elevation
Tony Grove Lake 0 in 8400 ft
Temple Fork 0 in 7406 ft
Bug Lake 0 in 7950 ft
Ben Lomond Trail 1 in 6000 ft
Monte Cristo 0 in 8960 ft

Earthquake Activity

City Distance Mag. Time & Date
No recent earthquake activity has been reported nearby.
Minimum magnitude displayed is 2.5.

Coastal Water Temperatures

Place Temperature
No Stations Reporting

Nearby Weather Stations